createdAt,value
2022-11-11T00:03:58.610Z,101168.05
2022-11-11T00:08:59.923Z,101163.13
2022-11-11T00:14:01.141Z,101160.39
2022-11-11T00:19:21.151Z,101164.02
2022-11-11T00:24:50.053Z,101161.35
2022-11-11T00:29:51.351Z,101153.31
2022-11-11T00:35:13.700Z,101147.48
2022-11-11T00:40:16.219Z,101143.23
2022-11-11T00:45:18.806Z,101137.45
2022-11-11T00:50:48.379Z,101140.08
2022-11-11T00:55:51.283Z,101139.20
2022-11-11T01:00:53.091Z,101130.46
2022-11-11T01:05:59.211Z,101125.31
2022-11-11T01:11:00.730Z,101123.83
2022-11-11T01:16:07.780Z,101117.36
2022-11-11T01:21:27.827Z,101118.45
2022-11-11T01:26:31.755Z,101126.13
2022-11-11T01:31:33.590Z,101143.56
2022-11-11T01:36:34.839Z,101155.29
2022-11-11T01:41:37.300Z,101154.98
2022-11-11T01:46:57.277Z,101145.34
2022-11-11T01:52:23.747Z,101144.53
2022-11-11T01:57:32.276Z,101149.50
2022-11-11T02:02:40.231Z,101149.55
2022-11-11T02:07:42.065Z,101147.45
2022-11-11T02:13:02.243Z,101149.73
2022-11-11T02:18:04.844Z,101143.20
2022-11-11T02:23:44.080Z,101129.10
2022-11-11T02:28:45.527Z,101121.20
2022-11-11T02:33:46.754Z,101116.27
2022-11-11T02:38:48.359Z,101121.25
2022-11-11T02:43:49.961Z,101128.89
2022-11-11T02:48:51.327Z,101141.50
2022-11-11T02:53:57.803Z,101137.20
2022-11-11T02:58:59.034Z,101138.05
2022-11-11T03:04:00.389Z,101152.37
2022-11-11T03:09:03.110Z,101157.73
2022-11-11T03:14:04.926Z,101160.39
2022-11-11T03:19:06.426Z,101165.15
2022-11-11T03:24:08.000Z,101165.42
2022-11-11T03:29:09.131Z,101174.95
2022-11-11T03:34:29.148Z,101180.47
2022-11-11T03:39:30.590Z,101180.00
2022-11-11T03:44:31.747Z,101168.19
2022-11-11T03:49:32.986Z,101160.80
2022-11-11T03:54:34.192Z,101157.91
2022-11-11T03:59:35.430Z,101160.34
2022-11-11T04:04:54.924Z,101171.14
2022-11-11T04:10:14.572Z,101174.67
2022-11-11T04:15:34.641Z,101163.12
2022-11-11T04:20:54.543Z,101147.70
2022-11-11T04:26:00.189Z,101140.14
2022-11-11T04:31:01.344Z,101129.95
2022-11-11T04:36:02.763Z,101129.13
2022-11-11T04:41:04.079Z,101116.50
2022-11-11T04:46:05.224Z,101123.52
2022-11-11T04:51:06.417Z,101129.16
2022-11-11T04:56:26.870Z,101127.10
2022-11-11T05:01:46.139Z,101123.41
2022-11-11T05:07:06.358Z,101125.59
2022-11-11T05:12:07.656Z,101127.04
2022-11-11T05:17:28.005Z,101124.25
2022-11-11T05:22:34.507Z,101130.46
2022-11-11T05:27:35.980Z,101128.20
2022-11-11T05:32:38.394Z,101122.02
2022-11-11T05:37:40.594Z,101117.94
2022-11-11T05:42:47.284Z,101118.37
2022-11-11T05:47:50.853Z,101117.00
2022-11-11T05:52:51.964Z,101122.69
2022-11-11T05:57:53.438Z,101121.42
2022-11-11T06:03:02.360Z,101121.41
2022-11-11T06:08:03.902Z,101125.73
2022-11-11T06:13:06.801Z,101116.77
2022-11-11T06:18:07.969Z,101114.23
2022-11-11T06:23:09.835Z,101122.05
2022-11-11T06:28:11.490Z,101136.17
2022-11-11T06:33:12.700Z,101138.98
2022-11-11T06:38:14.148Z,101134.91
2022-11-11T06:43:15.362Z,101132.45
2022-11-11T06:48:16.872Z,101127.67
2022-11-11T06:53:21.848Z,101140.41
2022-11-11T06:58:24.259Z,101143.20
2022-11-11T07:03:26.137Z,101147.70
2022-11-11T07:08:27.883Z,101145.00
2022-11-11T07:13:29.652Z,101146.05
2022-11-11T07:18:30.819Z,101152.42
2022-11-11T07:23:32.023Z,101158.81
2022-11-11T07:28:33.561Z,101166.30
2022-11-11T07:33:34.729Z,101181.42
2022-11-11T07:38:35.872Z,101183.87
2022-11-11T07:43:37.027Z,101188.89
2022-11-11T07:48:38.204Z,101182.48
2022-11-11T07:53:39.356Z,101184.16
2022-11-11T07:58:40.587Z,101193.63
2022-11-11T08:03:48.858Z,101190.73
2022-11-11T08:08:50.177Z,101190.42
2022-11-11T08:13:51.375Z,101191.25
2022-11-11T08:18:53.696Z,101188.27
2022-11-11T08:24:48.679Z,101176.75
2022-11-11T08:29:16.217Z,101186.91
2022-11-11T08:34:17.319Z,101200.65
2022-11-11T08:39:18.461Z,101206.95
2022-11-11T08:44:19.689Z,101197.41
2022-11-11T08:49:20.804Z,101196.59
2022-11-11T08:54:22.966Z,101183.97
2022-11-11T08:59:24.212Z,101192.73
2022-11-11T09:09:46.281Z,101194.96
2022-11-11T09:14:49.268Z,101180.33
2022-11-11T09:19:50.343Z,101171.48
2022-11-11T09:24:51.435Z,101196.02
2022-11-11T09:29:53.042Z,101209.73
2022-11-11T09:34:54.743Z,101198.45
2022-11-11T09:39:55.961Z,101184.21
2022-11-11T09:45:34.848Z,101169.88
2022-11-11T09:50:41.014Z,101175.19
2022-11-11T09:55:51.626Z,101167.60
2022-11-11T10:01:18.379Z,101162.71
2022-11-11T10:06:24.593Z,101164.34
2022-11-11T10:11:38.333Z,101162.10
2022-11-11T10:16:51.335Z,101167.34
2022-11-11T10:22:12.200Z,101177.02
2022-11-11T10:27:20.404Z,101176.84
2022-11-11T10:32:25.728Z,101176.80
2022-11-11T10:37:39.908Z,101177.02
2022-11-11T10:42:43.844Z,101179.79
2022-11-11T10:47:55.980Z,101179.19
2022-11-11T10:53:25.745Z,101180.45
2022-11-11T10:58:34.393Z,101179.29
2022-11-11T11:03:46.707Z,101183.88
2022-11-11T11:08:59.236Z,101186.77
2022-11-11T11:14:05.696Z,101184.55
2022-11-11T11:19:21.511Z,101181.74
2022-11-11T11:24:30.976Z,101183.28
2022-11-11T11:29:41.685Z,101181.44
2022-11-11T11:34:54.732Z,101177.97
2022-11-11T11:40:01.196Z,101184.90
2022-11-11T11:45:29.421Z,101181.19
2022-11-11T11:50:42.020Z,101193.59
2022-11-11T11:55:54.111Z,101194.31
2022-11-11T12:01:14.152Z,101201.21
2022-11-11T12:06:28.789Z,101194.61
2022-11-11T12:11:48.853Z,101181.23
2022-11-11T12:16:56.455Z,101164.73
2022-11-11T12:22:22.639Z,101170.79
2022-11-11T12:27:38.764Z,101174.05
2022-11-11T12:33:17.771Z,101186.35
2022-11-11T12:38:43.251Z,101198.95
2022-11-11T12:44:03.741Z,101199.67
2022-11-11T12:49:42.557Z,101217.70
2022-11-11T12:55:02.825Z,101223.34
2022-11-11T13:00:24.180Z,101225.04
2022-11-11T13:05:40.635Z,101222.67
2022-11-11T13:10:51.941Z,101218.70
2022-11-11T13:15:55.515Z,101212.19
2022-11-11T13:21:02.376Z,101201.93
2022-11-11T13:26:13.527Z,101206.30
2022-11-11T13:31:30.952Z,101210.76
2022-11-11T13:36:42.365Z,101209.52
2022-11-11T13:41:50.783Z,101209.58
2022-11-11T13:47:12.230Z,101209.64
2022-11-11T13:52:34.817Z,101213.09
2022-11-11T13:57:49.488Z,101227.50
2022-11-11T14:03:28.476Z,101232.80
2022-11-11T14:08:51.122Z,101227.70
2022-11-11T14:13:56.567Z,101226.44
2022-11-11T14:18:57.921Z,101238.90
2022-11-11T14:23:59.218Z,101251.56
2022-11-11T14:29:04.831Z,101255.36
2022-11-11T14:34:36.501Z,101252.83
2022-11-11T14:39:56.685Z,101253.20
2022-11-11T14:44:57.933Z,101251.23
2022-11-11T14:49:59.889Z,101250.38
2022-11-11T14:55:01.496Z,101244.05
2022-11-11T15:00:12.271Z,101240.02
2022-11-11T15:05:19.998Z,101247.27
2022-11-11T15:10:39.738Z,101256.80
2022-11-11T15:15:47.441Z,101264.08
2022-11-11T15:21:07.359Z,101261.63
2022-11-11T15:26:23.097Z,101267.90
2022-11-11T15:32:02.472Z,101273.69
2022-11-11T15:37:13.142Z,101280.95
2022-11-11T15:42:33.303Z,101287.85
2022-11-11T15:47:35.940Z,101292.82
2022-11-11T15:52:37.287Z,101300.23
2022-11-11T15:57:38.799Z,101299.98
2022-11-11T16:02:42.443Z,101301.25
2022-11-11T16:07:45.759Z,101305.99
2022-11-11T16:12:56.934Z,101303.00
2022-11-11T16:18:04.615Z,101298.36
2022-11-11T16:23:08.222Z,101288.52
2022-11-11T16:28:12.395Z,101289.23
2022-11-11T16:33:34.150Z,101288.50
2022-11-11T16:38:37.839Z,101276.30
2022-11-11T16:43:42.451Z,101276.07
2022-11-11T16:48:47.785Z,101284.62
2022-11-11T16:54:07.694Z,101285.91
2022-11-11T16:59:14.712Z,101284.54
2022-11-11T17:04:15.969Z,101288.69
2022-11-11T17:09:38.033Z,101295.60
2022-11-11T17:14:39.192Z,101300.75
2022-11-11T17:19:40.810Z,101302.86
2022-11-11T17:24:41.990Z,101308.05
2022-11-11T17:29:43.080Z,101317.02
2022-11-11T17:34:44.215Z,101324.95
2022-11-11T17:39:45.811Z,101327.95
2022-11-11T17:44:46.931Z,101328.65
2022-11-11T17:49:56.490Z,101335.53
2022-11-11T17:54:58.481Z,101334.75
2022-11-11T17:59:59.567Z,101338.80
2022-11-11T18:05:00.755Z,101338.67
2022-11-11T18:10:02.332Z,101337.56
2022-11-11T18:15:05.739Z,101330.10
2022-11-11T18:20:07.819Z,101322.81
2022-11-11T18:25:09.805Z,101327.70
2022-11-11T18:30:11.155Z,101327.79
2022-11-11T18:35:12.743Z,101324.91
2022-11-11T18:40:14.279Z,101329.67
2022-11-11T18:45:16.407Z,101336.38
2022-11-11T18:50:19.140Z,101341.04
2022-11-11T18:55:20.288Z,101342.85
2022-11-11T19:00:22.506Z,101342.50
2022-11-11T19:05:23.638Z,101349.30
2022-11-11T19:10:25.208Z,101344.83
2022-11-11T19:15:26.570Z,101349.01
2022-11-11T19:20:27.698Z,101347.29
2022-11-11T19:25:33.353Z,101346.43
2022-11-11T19:30:35.104Z,101343.59
2022-11-11T19:35:36.257Z,101347.73
2022-11-11T19:40:40.203Z,101363.34
2022-11-11T19:45:41.821Z,101365.90
2022-11-11T19:50:44.007Z,101369.30
2022-11-11T19:56:05.632Z,101376.89
2022-11-11T20:01:10.843Z,101380.10
2022-11-11T20:06:32.960Z,101383.83
2022-11-11T20:11:35.764Z,101374.77
2022-11-11T20:16:36.931Z,101368.83
2022-11-11T20:21:39.178Z,101370.61
2022-11-11T20:26:40.379Z,101368.30
2022-11-11T20:31:41.585Z,101367.05
2022-11-11T20:36:42.684Z,101362.55
2022-11-11T20:41:43.773Z,101368.27
2022-11-11T20:46:45.159Z,101373.92
2022-11-11T20:51:46.260Z,101371.69
2022-11-11T20:56:48.316Z,101377.89
2022-11-11T21:01:49.507Z,101376.77
2022-11-11T21:06:50.760Z,101380.00
2022-11-11T21:11:52.331Z,101383.19
2022-11-11T21:16:53.506Z,101381.86
2022-11-11T21:21:54.546Z,101378.66
2022-11-11T21:26:55.621Z,101378.31
2022-11-11T21:31:56.712Z,101381.00
2022-11-11T21:36:57.916Z,101382.23
2022-11-11T21:41:59.073Z,101389.54
2022-11-11T21:47:00.235Z,101386.77
2022-11-11T21:52:01.289Z,101378.10
2022-11-11T21:57:02.458Z,101381.39
2022-11-11T22:02:03.631Z,101383.33
2022-11-11T22:07:04.914Z,101384.88
2022-11-11T22:12:06.454Z,101390.87
2022-11-11T22:17:07.628Z,101388.27
2022-11-11T22:22:08.826Z,101388.18
2022-11-11T22:27:09.933Z,101391.37
2022-11-11T22:32:12.360Z,101392.58
2022-11-11T22:37:13.486Z,101398.98
2022-11-11T22:42:14.702Z,101403.09
2022-11-11T22:47:15.942Z,101406.20
2022-11-11T22:52:17.099Z,101407.19
2022-11-11T22:57:18.240Z,101412.15
2022-11-11T23:02:19.478Z,101413.77
2022-11-11T23:07:20.715Z,101410.55
2022-11-11T23:12:23.902Z,101411.75
2022-11-11T23:17:25.075Z,101407.82
2022-11-11T23:22:26.409Z,101408.52
2022-11-11T23:27:27.579Z,101407.12
2022-11-11T23:32:28.724Z,101411.23
2022-11-11T23:37:30.411Z,101408.52
2022-11-11T23:42:31.561Z,101412.38
2022-11-11T23:47:33.009Z,101414.14
2022-11-11T23:52:35.479Z,101410.20
2022-11-11T23:57:36.559Z,101412.02
